createdAt,value
2018-05-08T00:00:18.539Z,1000.74
2018-05-08T00:01:18.539Z,1000.69
2018-05-08T00:02:18.542Z,1000.74
2018-05-08T00:03:18.565Z,1000.74
2018-05-08T00:04:18.628Z,1000.72
2018-05-08T00:05:18.603Z,1000.70
2018-05-08T00:06:18.605Z,1000.69
2018-05-08T00:07:18.627Z,1000.70
2018-05-08T00:08:18.630Z,1000.71
2018-05-08T00:09:18.639Z,1000.68
2018-05-08T00:10:18.675Z,1000.67
2018-05-08T00:11:18.683Z,1000.67
2018-05-08T00:12:18.673Z,1000.65
2018-05-08T00:13:18.762Z,1000.62
2018-05-08T00:14:18.736Z,1000.62
2018-05-08T00:15:18.713Z,1000.61
2018-05-08T00:16:18.737Z,1000.57
2018-05-08T00:17:18.753Z,1000.56
2018-05-08T00:18:18.768Z,1000.53
2018-05-08T00:19:18.809Z,1000.54
2018-05-08T00:20:18.786Z,1000.54
2018-05-08T00:21:18.792Z,1000.52
2018-05-08T00:22:18.827Z,1000.52
2018-05-08T00:23:18.848Z,1000.53
2018-05-08T00:24:18.855Z,1000.53
2018-05-08T00:25:18.858Z,1000.57
2018-05-08T00:26:18.861Z,1000.54
2018-05-08T00:27:18.875Z,1000.53
2018-05-08T00:28:18.902Z,1000.58
2018-05-08T00:29:18.911Z,1000.54
2018-05-08T00:30:18.917Z,1000.54
2018-05-08T00:31:18.947Z,1000.54
2018-05-08T00:32:18.949Z,1000.49
2018-05-08T00:33:19.014Z,1000.51
2018-05-08T00:34:18.998Z,1000.52
2018-05-08T00:35:18.976Z,1000.46
2018-05-08T00:36:18.984Z,1000.50
2018-05-08T00:37:19.010Z,1000.49
2018-05-08T00:38:19.029Z,1000.52
2018-05-08T00:39:19.052Z,1000.55
2018-05-08T00:40:19.046Z,1000.48
2018-05-08T00:41:19.070Z,1000.42
2018-05-08T00:42:19.070Z,1000.44
2018-05-08T00:43:19.081Z,1000.43
2018-05-08T00:44:19.116Z,1000.42
2018-05-08T00:45:19.132Z,1000.40
2018-05-08T00:46:19.117Z,1000.39
2018-05-08T00:47:19.135Z,1000.41
2018-05-08T00:48:19.156Z,1000.45
2018-05-08T00:49:19.169Z,1000.44
2018-05-08T00:50:19.176Z,1000.40
2018-05-08T00:51:19.184Z,1000.43
2018-05-08T00:52:19.231Z,1000.43
2018-05-08T00:53:19.249Z,1000.41
2018-05-08T00:54:19.220Z,1000.45
2018-05-08T00:55:19.237Z,1000.42
2018-05-08T00:56:19.259Z,1000.42
2018-05-08T00:57:19.265Z,1000.37
2018-05-08T00:58:19.284Z,1000.40
2018-05-08T00:59:19.296Z,1000.39
2018-05-08T01:00:19.305Z,1000.38
2018-05-08T01:01:19.311Z,1000.35
2018-05-08T01:02:19.334Z,1000.37
2018-05-08T01:03:19.364Z,1000.35
2018-05-08T01:04:19.353Z,1000.34
2018-05-08T01:05:19.371Z,1000.38
2018-05-08T01:06:19.392Z,1000.35
2018-05-08T01:07:19.387Z,1000.37
2018-05-08T01:08:19.438Z,1000.33
2018-05-08T01:09:19.427Z,1000.33
2018-05-08T01:10:19.436Z,1000.37
2018-05-08T01:11:19.452Z,1000.32
2018-05-08T01:12:19.462Z,1000.30
2018-05-08T01:13:19.487Z,1000.29
2018-05-08T01:14:19.477Z,1000.28
2018-05-08T01:15:19.504Z,1000.29
2018-05-08T01:16:19.499Z,1000.29
2018-05-08T01:17:19.509Z,1000.29
2018-05-08T01:18:19.546Z,1000.30
2018-05-08T01:19:19.592Z,1000.32
2018-05-08T01:20:19.554Z,1000.36
2018-05-08T01:21:19.580Z,1000.35
2018-05-08T01:22:19.596Z,1000.35
2018-05-08T01:23:19.589Z,1000.32
2018-05-08T01:24:19.623Z,1000.34
2018-05-08T01:25:19.631Z,1000.35
2018-05-08T01:26:19.623Z,1000.36
2018-05-08T01:27:19.637Z,1000.36
2018-05-08T01:28:19.744Z,1000.37
2018-05-08T01:29:19.673Z,1000.34
2018-05-08T01:30:19.688Z,1000.35
2018-05-08T01:31:19.702Z,1000.36
2018-05-08T01:32:19.719Z,1000.35
2018-05-08T01:33:19.720Z,1000.37
2018-05-08T01:34:19.729Z,1000.36
2018-05-08T01:35:19.760Z,1000.36
2018-05-08T01:36:19.766Z,1000.32
2018-05-08T01:37:19.788Z,1000.33
2018-05-08T01:38:19.790Z,1000.31
2018-05-08T01:39:19.857Z,1000.29
2018-05-08T01:40:19.814Z,1000.27
2018-05-08T01:41:19.836Z,1000.24
2018-05-08T01:42:19.831Z,1000.27
2018-05-08T01:43:19.943Z,1000.26
2018-05-08T01:44:19.858Z,1000.30
2018-05-08T01:45:19.864Z,1000.34
2018-05-08T01:46:19.914Z,1000.31
2018-05-08T01:47:19.897Z,1000.32
2018-05-08T01:48:19.907Z,1000.35
2018-05-08T01:49:19.913Z,1000.36
2018-05-08T01:50:19.937Z,1000.34
2018-05-08T01:51:20.042Z,1000.32
2018-05-08T01:52:19.978Z,1000.30
2018-05-08T01:53:19.979Z,1000.34
2018-05-08T01:54:19.980Z,1000.31
2018-05-08T01:55:20.014Z,1000.26
2018-05-08T01:56:20.045Z,1000.27
2018-05-08T01:57:20.010Z,1000.24
2018-05-08T01:58:20.039Z,1000.23
2018-05-08T01:59:20.036Z,1000.27
2018-05-08T02:00:20.057Z,1000.29
2018-05-08T02:01:20.073Z,1000.25
2018-05-08T02:02:20.078Z,1000.25
2018-05-08T02:03:20.109Z,1000.27
2018-05-08T02:04:20.124Z,1000.20
2018-05-08T02:05:20.136Z,1000.20
2018-05-08T02:06:20.128Z,1000.19
2018-05-08T02:07:20.142Z,1000.17
2018-05-08T02:08:20.147Z,1000.21
2018-05-08T02:09:20.184Z,1000.19
2018-05-08T02:10:20.197Z,1000.21
2018-05-08T02:11:20.199Z,1000.21
2018-05-08T02:12:20.229Z,1000.22
2018-05-08T02:13:20.214Z,1000.23
2018-05-08T02:14:20.231Z,1000.21
2018-05-08T02:15:20.243Z,1000.18
2018-05-08T02:16:20.250Z,1000.21
2018-05-08T02:17:20.263Z,1000.21
2018-05-08T02:18:20.282Z,1000.20
2018-05-08T02:19:20.324Z,1000.19
2018-05-08T02:20:20.381Z,1000.19
2018-05-08T02:21:20.309Z,1000.21
2018-05-08T02:22:20.338Z,1000.23
2018-05-08T02:23:20.375Z,1000.23
2018-05-08T02:24:20.406Z,1000.19
2018-05-08T02:25:20.380Z,1000.17
2018-05-08T02:26:20.432Z,1000.21
2018-05-08T02:27:20.406Z,1000.17
2018-05-08T02:28:20.417Z,1000.18
2018-05-08T02:29:20.427Z,1000.20
2018-05-08T02:30:20.429Z,1000.21
2018-05-08T02:31:20.460Z,1000.22
2018-05-08T02:32:20.468Z,1000.21
2018-05-08T02:33:20.450Z,1000.20
2018-05-08T02:34:20.595Z,1000.20
2018-05-08T02:35:20.496Z,1000.23
2018-05-08T02:36:20.500Z,1000.19
2018-05-08T02:37:20.517Z,1000.18
2018-05-08T02:38:20.568Z,1000.14
2018-05-08T02:39:20.618Z,1000.16
2018-05-08T02:40:20.845Z,1000.18
2018-05-08T02:41:20.570Z,1000.14
2018-05-08T02:42:20.571Z,1000.12
2018-05-08T02:43:20.588Z,1000.11
2018-05-08T02:44:20.630Z,1000.09
2018-05-08T02:45:20.647Z,1000.12
2018-05-08T02:46:20.609Z,1000.11
2018-05-08T02:47:20.674Z,1000.17
2018-05-08T02:48:20.653Z,1000.18
2018-05-08T02:49:20.669Z,1000.15
2018-05-08T02:50:20.663Z,1000.13
2018-05-08T02:51:20.673Z,1000.15
2018-05-08T02:52:20.752Z,1000.21
2018-05-08T02:53:20.714Z,1000.17
2018-05-08T02:54:20.733Z,1000.20
2018-05-08T02:55:20.796Z,1000.18
2018-05-08T02:56:20.741Z,1000.13
2018-05-08T02:57:20.758Z,1000.12
2018-05-08T02:58:20.769Z,1000.10
2018-05-08T02:59:20.794Z,1000.09
2018-05-08T03:00:20.838Z,1000.12
2018-05-08T03:01:20.827Z,1000.12
2018-05-08T03:02:20.838Z,1000.09
2018-05-08T03:03:20.908Z,1000.15
2018-05-08T03:04:20.829Z,1000.11
2018-05-08T03:05:20.861Z,1000.14
2018-05-08T03:06:20.919Z,1000.15
2018-05-08T03:07:20.872Z,1000.17
2018-05-08T03:08:20.949Z,1000.17
2018-05-08T03:09:20.915Z,1000.15
2018-05-08T03:10:20.906Z,1000.12
2018-05-08T03:11:20.910Z,1000.12
2018-05-08T03:12:20.952Z,1000.14
2018-05-08T03:13:20.936Z,1000.15
2018-05-08T03:14:20.990Z,1000.15
2018-05-08T03:15:20.953Z,1000.16
2018-05-08T03:16:20.987Z,1000.13
2018-05-08T03:17:20.980Z,1000.20
2018-05-08T03:18:21.023Z,1000.20
2018-05-08T03:19:21.010Z,1000.20
2018-05-08T03:20:21.024Z,1000.24
2018-05-08T03:21:21.065Z,1000.24
2018-05-08T03:22:21.068Z,1000.23
2018-05-08T03:23:21.058Z,1000.21
2018-05-08T03:24:21.080Z,1000.20
2018-05-08T03:25:21.101Z,1000.24
2018-05-08T03:26:21.088Z,1000.21
2018-05-08T03:27:21.111Z,1000.22
2018-05-08T03:28:21.113Z,1000.21
2018-05-08T03:29:21.152Z,1000.16
2018-05-08T03:30:21.167Z,1000.17
2018-05-08T03:31:21.152Z,1000.15
2018-05-08T03:32:21.166Z,1000.15
2018-05-08T03:33:21.210Z,1000.15
2018-05-08T03:34:21.194Z,1000.16
2018-05-08T03:35:21.239Z,1000.15
2018-05-08T03:36:21.204Z,1000.22
2018-05-08T03:37:21.209Z,1000.16
2018-05-08T03:38:21.243Z,1000.19
2018-05-08T03:39:21.252Z,1000.16
2018-05-08T03:40:21.268Z,1000.12
2018-05-08T03:41:21.263Z,1000.16
2018-05-08T03:42:21.270Z,1000.14
2018-05-08T03:43:21.287Z,1000.16
2018-05-08T03:44:21.336Z,1000.17
2018-05-08T03:45:21.338Z,1000.15
2018-05-08T03:46:21.315Z,1000.20
2018-05-08T03:47:21.387Z,1000.20
2018-05-08T03:48:21.362Z,1000.25
2018-05-08T03:49:21.383Z,1000.21
2018-05-08T03:50:21.498Z,1000.25
2018-05-08T03:51:21.376Z,1000.26
2018-05-08T03:52:21.397Z,1000.25
2018-05-08T03:53:21.420Z,1000.27
2018-05-08T03:54:21.427Z,1000.27
2018-05-08T03:55:21.427Z,1000.23
2018-05-08T03:56:21.435Z,1000.24
2018-05-08T03:57:21.529Z,1000.21
2018-05-08T03:58:21.464Z,1000.21
2018-05-08T03:59:21.508Z,1000.23
2018-05-08T04:00:21.492Z,1000.17
2018-05-08T04:01:21.502Z,1000.22
2018-05-08T04:02:21.548Z,1000.21
2018-05-08T04:03:21.519Z,1000.24
2018-05-08T04:04:21.550Z,1000.22
2018-05-08T04:05:21.547Z,1000.20
2018-05-08T04:06:21.599Z,1000.18
2018-05-08T04:07:21.593Z,1000.18
2018-05-08T04:08:21.637Z,1000.17
2018-05-08T04:09:21.595Z,1000.20
2018-05-08T04:10:21.605Z,1000.15
2018-05-08T04:11:21.644Z,1000.16
2018-05-08T04:12:21.647Z,1000.21
2018-05-08T04:13:21.652Z,1000.20
2018-05-08T04:14:21.647Z,1000.17
2018-05-08T04:15:21.678Z,1000.16
2018-05-08T04:16:21.665Z,1000.18
2018-05-08T04:17:21.732Z,1000.12
2018-05-08T04:18:21.687Z,1000.16
2018-05-08T04:19:21.698Z,1000.18
2018-05-08T04:20:21.716Z,1000.15
2018-05-08T04:21:21.744Z,1000.12
2018-05-08T04:22:21.753Z,1000.19
2018-05-08T04:23:21.754Z,1000.20
2018-05-08T04:24:21.771Z,1000.18
2018-05-08T04:25:21.770Z,1000.17
2018-05-08T04:26:21.788Z,1000.22
2018-05-08T04:27:21.815Z,1000.19
2018-05-08T04:28:21.823Z,1000.21
2018-05-08T04:29:21.870Z,1000.16
2018-05-08T04:30:21.862Z,1000.18
2018-05-08T04:31:21.838Z,1000.21
2018-05-08T04:32:21.837Z,1000.22
2018-05-08T04:33:21.847Z,1000.18
2018-05-08T04:34:21.953Z,1000.19
2018-05-08T04:35:21.905Z,1000.20
2018-05-08T04:36:21.923Z,1000.21
2018-05-08T04:37:21.923Z,1000.16
2018-05-08T04:38:21.921Z,1000.19
2018-05-08T04:39:21.954Z,1000.16
2018-05-08T04:40:21.944Z,1000.19
2018-05-08T04:41:21.965Z,1000.17
2018-05-08T04:42:21.981Z,1000.16
2018-05-08T04:43:21.966Z,1000.19
2018-05-08T04:44:21.977Z,1000.21
2018-05-08T04:45:22.004Z,1000.23
2018-05-08T04:46:22.014Z,1000.22
2018-05-08T04:47:22.044Z,1000.24
2018-05-08T04:48:22.049Z,1000.18
2018-05-08T04:49:22.033Z,1000.23
2018-05-08T04:50:22.068Z,1000.23
2018-05-08T04:51:22.089Z,1000.22
2018-05-08T04:52:22.109Z,1000.24
2018-05-08T04:53:22.088Z,1000.24
2018-05-08T04:54:22.090Z,1000.23
2018-05-08T04:55:22.108Z,1000.21
2018-05-08T04:56:22.193Z,1000.25
2018-05-08T04:57:22.155Z,1000.21
2018-05-08T04:58:22.155Z,1000.19
2018-05-08T04:59:22.195Z,1000.18
2018-05-08T05:00:22.211Z,1000.14
2018-05-08T05:01:22.171Z,1000.12
2018-05-08T05:02:22.191Z,1000.12
2018-05-08T05:03:22.193Z,1000.14
2018-05-08T05:04:22.230Z,1000.15
2018-05-08T05:05:22.245Z,1000.16
2018-05-08T05:06:22.257Z,1000.19
2018-05-08T05:07:22.249Z,1000.21
2018-05-08T05:08:22.257Z,1000.20
2018-05-08T05:09:22.276Z,1000.21
2018-05-08T05:10:22.280Z,1000.19
2018-05-08T05:11:22.325Z,1000.21
2018-05-08T05:12:22.349Z,1000.22
2018-05-08T05:13:22.333Z,1000.22
2018-05-08T05:14:22.335Z,1000.25
2018-05-08T05:15:22.341Z,1000.25
2018-05-08T05:16:22.358Z,1000.25
2018-05-08T05:17:22.398Z,1000.28
2018-05-08T05:18:22.419Z,1000.25
2018-05-08T05:19:22.377Z,1000.24
2018-05-08T05:20:22.422Z,1000.26
2018-05-08T05:21:22.420Z,1000.27
2018-05-08T05:22:22.425Z,1000.22
2018-05-08T05:23:22.427Z,1000.27
2018-05-08T05:24:22.478Z,1000.17
2018-05-08T05:25:22.449Z,1000.25
2018-05-08T05:26:22.480Z,1000.21
2018-05-08T05:27:22.476Z,1000.17
2018-05-08T05:28:22.497Z,1000.21
2018-05-08T05:29:22.494Z,1000.20
2018-05-08T05:30:22.509Z,1000.23
2018-05-08T05:31:22.517Z,1000.24
2018-05-08T05:32:22.525Z,1000.21
2018-05-08T05:33:22.537Z,1000.19
2018-05-08T05:34:22.577Z,1000.17
2018-05-08T05:35:22.616Z,1000.19
2018-05-08T05:36:22.574Z,1000.20
2018-05-08T05:37:22.596Z,1000.19
2018-05-08T05:38:22.655Z,1000.14
2018-05-08T05:39:22.613Z,1000.20
2018-05-08T05:40:22.624Z,1000.17
2018-05-08T05:41:22.629Z,1000.16
2018-05-08T05:42:22.644Z,1000.12
2018-05-08T05:43:22.666Z,1000.12
2018-05-08T05:44:22.687Z,1000.09
2018-05-08T05:45:22.690Z,1000.10
2018-05-08T05:46:22.698Z,1000.07
2018-05-08T05:47:22.717Z,1000.07
2018-05-08T05:48:22.782Z,1000.06
2018-05-08T05:49:22.731Z,1000.07
2018-05-08T05:50:22.741Z,1000.06
2018-05-08T05:51:22.771Z,1000.09
2018-05-08T05:52:22.788Z,1000.06
2018-05-08T05:53:22.796Z,1000.07
2018-05-08T05:54:22.804Z,1000.05
2018-05-08T05:55:22.842Z,1000.07
2018-05-08T05:56:22.811Z,1000.07
2018-05-08T05:57:22.857Z,1000.02
2018-05-08T05:58:22.850Z,1000.06
2018-05-08T05:59:22.856Z,1000.06
2018-05-08T06:00:22.883Z,999.99
2018-05-08T06:01:22.869Z,999.98
2018-05-08T06:02:22.883Z,1000.01
2018-05-08T06:03:22.889Z,999.96
2018-05-08T06:04:22.899Z,999.99
2018-05-08T06:05:22.967Z,999.98
2018-05-08T06:06:23.005Z,999.98
2018-05-08T06:07:22.950Z,999.97
2018-05-08T06:08:22.972Z,999.98
2018-05-08T06:09:22.962Z,999.97
2018-05-08T06:10:23.011Z,999.97
2018-05-08T06:11:23.020Z,999.96
2018-05-08T06:12:23.003Z,1000.00
2018-05-08T06:13:23.029Z,999.95
2018-05-08T06:14:23.032Z,999.94
2018-05-08T06:15:23.047Z,999.95
2018-05-08T06:16:23.062Z,999.94
2018-05-08T06:17:23.056Z,999.95
2018-05-08T06:18:23.075Z,999.92
2018-05-08T06:19:23.089Z,999.92
2018-05-08T06:20:23.160Z,999.91
2018-05-08T06:21:23.123Z,999.94
2018-05-08T06:22:23.123Z,999.92
2018-05-08T06:23:23.134Z,999.92
2018-05-08T06:24:23.157Z,999.91
2018-05-08T06:25:23.161Z,999.96
2018-05-08T06:26:23.160Z,999.95
2018-05-08T06:27:23.187Z,999.97
2018-05-08T06:28:23.197Z,999.92
2018-05-08T06:29:23.206Z,999.92
2018-05-08T06:30:23.213Z,999.90
2018-05-08T06:31:23.258Z,999.86
2018-05-08T06:32:23.255Z,999.89
2018-05-08T06:33:23.259Z,999.89
2018-05-08T06:34:23.277Z,999.87
2018-05-08T06:35:23.290Z,999.88
2018-05-08T06:36:23.297Z,999.88
2018-05-08T06:37:23.301Z,999.87
2018-05-08T06:38:23.310Z,999.85
2018-05-08T06:39:23.399Z,999.84
2018-05-08T06:40:23.345Z,999.86
2018-05-08T06:41:23.355Z,999.88
2018-05-08T06:42:23.358Z,999.82
2018-05-08T06:43:23.371Z,999.83
2018-05-08T06:44:23.557Z,999.86
2018-05-08T06:45:23.407Z,999.86
2018-05-08T06:46:23.451Z,999.85
2018-05-08T06:47:23.451Z,999.84
2018-05-08T06:48:23.440Z,999.87
2018-05-08T06:49:23.447Z,999.87
2018-05-08T06:50:23.475Z,999.89
2018-05-08T06:51:23.457Z,999.82
2018-05-08T06:52:23.482Z,999.85
2018-05-08T06:53:23.518Z,999.83
2018-05-08T06:54:23.510Z,999.83
2018-05-08T06:55:23.510Z,999.82
2018-05-08T06:56:23.537Z,999.83
2018-05-08T06:57:23.543Z,999.84
2018-05-08T06:58:23.563Z,999.82
2018-05-08T06:59:23.560Z,999.83
2018-05-08T07:00:23.576Z,999.82
2018-05-08T07:01:23.615Z,999.81
2018-05-08T07:02:23.601Z,999.85
2018-05-08T07:03:23.617Z,999.84
2018-05-08T07:04:23.634Z,999.82
2018-05-08T07:05:23.649Z,999.84
2018-05-08T07:06:23.697Z,999.81
2018-05-08T07:07:23.689Z,999.80
2018-05-08T07:08:23.695Z,999.82
2018-05-08T07:09:23.714Z,999.75
2018-05-08T07:10:23.716Z,999.80
2018-05-08T07:11:23.725Z,999.76
2018-05-08T07:12:23.740Z,999.77
2018-05-08T07:13:23.751Z,999.71
2018-05-08T07:14:23.769Z,999.71
2018-05-08T07:15:23.774Z,999.74
2018-05-08T07:16:23.795Z,999.71
2018-05-08T07:17:23.795Z,999.76
2018-05-08T07:18:23.821Z,999.77
2018-05-08T07:19:23.906Z,999.80
2018-05-08T07:20:23.859Z,999.78
2018-05-08T07:21:23.909Z,999.79
2018-05-08T07:22:23.871Z,999.77
2018-05-08T07:23:23.880Z,999.76
2018-05-08T07:24:23.883Z,999.73
2018-05-08T07:25:23.925Z,999.76
2018-05-08T07:26:23.896Z,999.71
2018-05-08T07:27:23.948Z,999.68
2018-05-08T07:28:23.946Z,999.70
2018-05-08T07:29:23.957Z,999.70
2018-05-08T07:30:23.952Z,999.74
2018-05-08T07:31:24.007Z,999.75
2018-05-08T07:32:24.046Z,999.73
2018-05-08T07:33:23.992Z,999.73
2018-05-08T07:34:24.025Z,999.72
2018-05-08T07:35:24.011Z,999.68
2018-05-08T07:36:24.033Z,999.71
2018-05-08T07:37:24.036Z,999.72
2018-05-08T07:38:24.122Z,999.72
2018-05-08T07:39:24.091Z,999.75
2018-05-08T07:40:24.098Z,999.75
2018-05-08T07:41:24.107Z,999.72
2018-05-08T07:42:24.108Z,999.69
2018-05-08T07:43:24.147Z,999.70
2018-05-08T07:44:24.186Z,999.68
2018-05-08T07:45:24.175Z,999.70
2018-05-08T07:46:24.193Z,999.68
2018-05-08T07:47:24.170Z,999.64
2018-05-08T07:48:24.183Z,999.64
2018-05-08T07:49:24.210Z,999.65
2018-05-08T07:50:24.202Z,999.68
2018-05-08T07:51:24.232Z,999.70
2018-05-08T07:52:24.237Z,999.68
2018-05-08T07:53:24.246Z,999.67
2018-05-08T07:54:24.249Z,999.67
2018-05-08T07:55:24.293Z,999.72
2018-05-08T07:56:24.311Z,999.66
2018-05-08T07:57:24.347Z,999.63
2018-05-08T07:58:24.353Z,999.63
2018-05-08T07:59:24.373Z,999.64
2018-05-08T08:00:24.371Z,999.58
2018-05-08T08:01:24.386Z,999.60
2018-05-08T08:02:24.401Z,999.60
2018-05-08T08:03:24.437Z,999.59
2018-05-08T08:04:24.404Z,999.58
2018-05-08T08:05:24.405Z,999.50
2018-05-08T08:06:24.428Z,999.48
2018-05-08T08:07:24.493Z,999.52
2018-05-08T08:08:24.498Z,999.51
2018-05-08T08:09:24.462Z,999.48
2018-05-08T08:10:24.479Z,999.48
2018-05-08T08:11:24.481Z,999.52
2018-05-08T08:12:24.561Z,999.51
2018-05-08T08:13:24.502Z,999.47
2018-05-08T08:14:24.513Z,999.44
2018-05-08T08:16:24.584Z,999.47
2018-05-08T08:17:24.591Z,999.43
2018-05-08T08:18:24.708Z,999.41
2018-05-08T08:19:24.600Z,999.42
2018-05-08T08:21:24.617Z,999.42
2018-05-08T08:22:24.645Z,999.44
2018-05-08T08:23:24.636Z,999.48
2018-05-08T08:24:24.643Z,999.44
2018-05-08T08:25:24.671Z,999.46
2018-05-08T08:26:24.680Z,999.41
2018-05-08T08:28:24.712Z,999.41
2018-05-08T08:29:24.716Z,999.38
2018-05-08T08:30:24.809Z,999.45
2018-05-08T08:31:24.877Z,999.43
2018-05-08T08:32:24.845Z,999.35
2018-05-08T08:33:24.919Z,999.34
2018-05-08T08:35:24.828Z,999.36
2018-05-08T08:36:24.898Z,999.35
2018-05-08T08:37:24.923Z,999.28
2018-05-08T08:38:24.913Z,999.36
2018-05-08T08:39:24.939Z,999.31
2018-05-08T08:40:24.905Z,999.30
2018-05-08T08:41:24.982Z,999.29
2018-05-08T08:42:24.907Z,999.29
2018-05-08T08:43:24.955Z,999.20
2018-05-08T08:44:24.909Z,999.26
2018-05-08T08:45:24.926Z,999.30
2018-05-08T08:46:25.009Z,999.29
2018-05-08T08:48:24.978Z,999.28
2018-05-08T08:49:25.001Z,999.23
2018-05-08T08:50:25.032Z,999.24
2018-05-08T08:51:25.050Z,999.21
2018-05-08T08:52:25.054Z,999.16
2018-05-08T08:53:25.065Z,999.17
2018-05-08T08:54:25.058Z,999.18
2018-05-08T08:55:25.077Z,999.17
2018-05-08T08:56:25.072Z,999.15
2018-05-08T08:57:25.107Z,999.15
2018-05-08T08:58:25.113Z,999.17
2018-05-08T09:00:25.129Z,999.10
2018-05-08T09:01:25.159Z,999.10
2018-05-08T09:02:25.166Z,999.09
2018-05-08T09:03:25.191Z,999.10
2018-05-08T09:04:25.198Z,999.04
2018-05-08T09:05:25.246Z,999.02
2018-05-08T09:06:25.284Z,999.10
2018-05-08T09:07:25.259Z,999.14
2018-05-08T09:08:25.282Z,999.08
2018-05-08T09:09:25.263Z,999.07
2018-05-08T09:10:25.277Z,999.05
2018-05-08T09:11:25.289Z,999.13
2018-05-08T09:12:25.289Z,999.12
2018-05-08T09:13:25.482Z,999.17
2018-05-08T09:14:25.325Z,999.13
2018-05-08T09:15:25.375Z,999.06
2018-05-08T09:16:25.362Z,999.16
2018-05-08T09:17:25.495Z,999.08
2018-05-08T09:18:25.398Z,999.05
2018-05-08T09:19:25.448Z,999.03
2018-05-08T09:20:25.440Z,999.01
2018-05-08T09:21:25.423Z,998.97
2018-05-08T09:22:25.432Z,999.04
2018-05-08T09:23:25.450Z,999.02
2018-05-08T09:24:25.505Z,999.02
2018-05-08T09:25:25.489Z,998.99
2018-05-08T09:26:25.497Z,999.03
2018-05-08T09:27:25.564Z,998.96
2018-05-08T09:28:25.588Z,998.98
2018-05-08T09:29:25.575Z,998.91
2018-05-08T09:30:25.596Z,998.92
2018-05-08T09:31:25.557Z,998.90
2018-05-08T09:32:25.574Z,998.92
2018-05-08T09:33:25.601Z,998.90
2018-05-08T09:34:25.612Z,998.95
2018-05-08T09:35:25.628Z,998.87
2018-05-08T09:36:25.644Z,998.87
2018-05-08T09:37:25.646Z,998.91
2018-05-08T09:38:25.663Z,998.91
2018-05-08T09:39:25.823Z,998.87
2018-05-08T09:40:25.698Z,998.80
2018-05-08T09:41:25.733Z,998.82
2018-05-08T09:42:25.723Z,998.80
2018-05-08T09:43:25.789Z,998.76
2018-05-08T09:44:25.757Z,998.76
2018-05-08T09:45:25.763Z,998.76
2018-05-08T09:46:25.776Z,998.77
2018-05-08T09:47:25.802Z,998.76
2018-05-08T09:48:25.824Z,998.77
2018-05-08T09:49:25.827Z,998.77
2018-05-08T09:50:25.830Z,998.79
2018-05-08T09:51:25.840Z,998.72
2018-05-08T09:52:25.917Z,998.73
2018-05-08T09:53:25.886Z,998.74
2018-05-08T09:54:25.899Z,998.74
2018-05-08T09:55:25.918Z,998.73
2018-05-08T09:56:25.933Z,998.67
2018-05-08T09:57:25.952Z,998.73
2018-05-08T09:58:25.952Z,998.74
2018-05-08T09:59:25.959Z,998.72
2018-05-08T10:00:25.973Z,998.73
2018-05-08T10:01:26.021Z,998.62
2018-05-08T10:02:26.026Z,998.62
2018-05-08T10:03:26.028Z,998.62
2018-05-08T10:04:26.049Z,998.59
2018-05-08T10:05:26.134Z,998.60
2018-05-08T10:06:26.079Z,998.51
2018-05-08T10:07:26.102Z,998.50
2018-05-08T10:08:26.108Z,998.54
2018-05-08T10:09:26.141Z,998.51
2018-05-08T10:10:26.121Z,998.49
2018-05-08T10:11:26.175Z,998.55
2018-05-08T10:12:26.194Z,998.50
2018-05-08T10:13:26.155Z,998.46
2018-05-08T10:14:26.218Z,998.41
2018-05-08T10:15:26.194Z,998.40
2018-05-08T10:16:26.210Z,998.35
2018-05-08T10:17:26.231Z,998.40
2018-05-08T10:18:26.261Z,998.43
2018-05-08T10:19:26.268Z,998.38
2018-05-08T10:20:26.302Z,998.39
2018-05-08T10:21:26.318Z,998.36
2018-05-08T10:22:26.289Z,998.44
2018-05-08T10:23:26.316Z,998.38
2018-05-08T10:24:26.338Z,998.37
2018-05-08T10:25:26.348Z,998.33
2018-05-08T10:26:26.374Z,998.35
2018-05-08T10:27:26.382Z,998.33
2018-05-08T10:28:26.398Z,998.29
2018-05-08T10:29:26.416Z,998.29
2018-05-08T10:30:26.419Z,998.27
2018-05-08T10:31:26.429Z,998.30
2018-05-08T10:32:26.438Z,998.21
2018-05-08T10:33:26.454Z,998.28
2018-05-08T10:34:26.492Z,998.23
2018-05-08T10:35:26.506Z,998.28
2018-05-08T10:36:26.515Z,998.27
2018-05-08T10:37:26.511Z,998.21
2018-05-08T10:38:26.582Z,998.25
2018-05-08T10:39:26.547Z,998.26
2018-05-08T10:40:26.575Z,998.23
2018-05-08T10:41:26.606Z,998.22
2018-05-08T10:42:26.606Z,998.19
2018-05-08T10:43:27.356Z,998.15
2018-05-08T10:44:26.629Z,998.21
2018-05-08T10:45:26.629Z,998.13
2018-05-08T10:46:26.701Z,998.15
2018-05-08T10:47:26.683Z,998.07
2018-05-08T10:48:26.692Z,998.14
2018-05-08T10:49:26.693Z,998.11
2018-05-08T10:50:26.703Z,998.06
2018-05-08T10:51:26.737Z,998.11
2018-05-08T10:52:26.751Z,997.96
2018-05-08T10:53:26.753Z,998.11
2018-05-08T10:54:26.762Z,998.11
2018-05-08T10:55:26.795Z,998.14
2018-05-08T10:56:26.811Z,998.12
2018-05-08T10:57:26.843Z,998.21
2018-05-08T10:58:26.862Z,998.26
2018-05-08T10:59:26.874Z,998.41
2018-05-08T11:00:26.892Z,998.42
2018-05-08T11:01:26.885Z,998.40
2018-05-08T11:02:26.899Z,998.41
2018-05-08T11:03:26.913Z,998.48
2018-05-08T11:04:26.917Z,998.61
2018-05-08T11:05:26.976Z,998.78
2018-05-08T11:06:26.977Z,998.89
2018-05-08T11:07:27.039Z,998.93
2018-05-08T11:08:27.024Z,998.96
2018-05-08T11:09:27.053Z,998.98
2018-05-08T11:10:27.053Z,999.08
2018-05-08T11:11:27.157Z,999.04
2018-05-08T11:12:27.108Z,999.04
2018-05-08T11:13:27.083Z,999.07
2018-05-08T11:14:27.118Z,999.04
2018-05-08T11:15:27.137Z,998.96
2018-05-08T11:16:27.152Z,999.03
2018-05-08T11:17:27.197Z,999.09
2018-05-08T11:18:27.199Z,999.07
2018-05-08T11:19:27.210Z,999.15
2018-05-08T11:20:27.228Z,999.08
2018-05-08T11:21:27.244Z,999.07
2018-05-08T11:22:27.289Z,999.01
2018-05-08T11:23:27.306Z,999.08
2018-05-08T11:24:27.353Z,999.05
2018-05-08T11:25:27.344Z,999.01
2018-05-08T11:26:27.441Z,998.90
2018-05-08T11:27:27.379Z,998.89
2018-05-08T11:28:27.397Z,998.96
2018-05-08T11:29:27.429Z,999.05
2018-05-08T11:30:27.486Z,999.03
2018-05-08T11:31:27.497Z,998.94
2018-05-08T11:32:27.486Z,998.93
2018-05-08T11:33:27.567Z,998.94
2018-05-08T11:34:27.580Z,998.84
2018-05-08T11:35:27.576Z,998.71
2018-05-08T11:36:27.591Z,998.58
2018-05-08T11:37:27.646Z,998.50
2018-05-08T11:38:27.693Z,998.52
2018-05-08T11:39:27.670Z,998.47
2018-05-08T11:40:27.699Z,998.41
2018-05-08T11:41:27.704Z,998.37
2018-05-08T11:42:27.779Z,998.33
2018-05-08T11:43:27.800Z,998.31
2018-05-08T11:44:27.823Z,998.25
2018-05-08T11:45:27.835Z,998.26
2018-05-08T11:46:27.842Z,998.25
2018-05-08T11:47:27.876Z,998.20
2018-05-08T11:48:27.925Z,998.11
2018-05-08T11:49:27.930Z,998.14
2018-05-08T11:50:27.985Z,998.15
2018-05-08T11:51:28.033Z,998.09
2018-05-08T11:52:28.024Z,998.05
2018-05-08T11:53:28.050Z,998.09
2018-05-08T11:54:28.071Z,998.09
2018-05-08T11:55:28.106Z,998.08
2018-05-08T11:56:28.152Z,998.04
2018-05-08T11:57:28.157Z,997.95
2018-05-08T11:58:28.196Z,998.04
2018-05-08T11:59:28.244Z,997.99
2018-05-08T12:00:28.279Z,997.99
2018-05-08T12:01:28.293Z,997.96
2018-05-08T12:02:28.335Z,997.96
2018-05-08T12:03:28.362Z,997.92
2018-05-08T12:04:28.429Z,997.91
2018-05-08T12:05:28.437Z,997.92
2018-05-08T12:06:28.445Z,997.92
2018-05-08T12:07:28.498Z,997.90
2018-05-08T12:08:28.520Z,997.88
2018-05-08T12:09:28.556Z,997.85
2018-05-08T12:10:28.630Z,997.88
2018-05-08T12:11:28.624Z,997.84
2018-05-08T12:12:28.651Z,997.85
2018-05-08T12:13:28.676Z,997.75
2018-05-08T12:14:28.809Z,997.82
2018-05-08T12:15:28.761Z,997.78
2018-05-08T12:16:28.803Z,997.77
2018-05-08T12:17:28.821Z,997.80
2018-05-08T12:18:28.889Z,997.71
2018-05-08T12:19:28.898Z,997.69
2018-05-08T12:20:28.938Z,997.66
2018-05-08T12:21:28.973Z,997.67
2018-05-08T12:22:29.049Z,997.67
2018-05-08T12:23:29.075Z,997.62